createdAt,value
2019-01-25T00:01:38.114Z,27.60
2019-01-25T00:04:07.863Z,28.40
2019-01-25T00:06:37.462Z,28.92
2019-01-25T00:09:08.993Z,27.93
2019-01-25T00:11:38.800Z,28.30
2019-01-25T00:14:08.556Z,26.40
2019-01-25T00:16:38.216Z,26.65
2019-01-25T00:19:07.977Z,26.45
2019-01-25T00:21:37.566Z,27.20
2019-01-25T00:24:07.256Z,27.40
2019-01-25T00:26:37.873Z,26.00
2019-01-25T00:29:07.591Z,25.97
2019-01-25T00:31:37.297Z,25.37
2019-01-25T00:34:06.828Z,24.57
2019-01-25T00:36:36.523Z,24.47
2019-01-25T00:39:08.226Z,24.12
2019-01-25T00:41:38.094Z,24.07
2019-01-25T00:44:07.724Z,24.70
2019-01-25T00:46:37.423Z,23.38
2019-01-25T00:49:07.042Z,22.85
2019-01-25T00:51:36.738Z,22.98
2019-01-25T00:54:06.757Z,23.27
2019-01-25T00:56:36.464Z,22.87
2019-01-25T00:59:06.102Z,22.45
2019-01-25T01:01:35.927Z,22.77
2019-01-25T01:04:05.743Z,23.15
2019-01-25T01:06:35.315Z,21.17
2019-01-25T01:09:07.067Z,22.35
2019-01-25T01:11:36.766Z,21.90
2019-01-25T01:14:06.411Z,21.85
2019-01-25T01:16:36.086Z,21.10
2019-01-25T01:19:05.768Z,20.82
2019-01-25T01:21:35.520Z,20.80
2019-01-25T01:24:05.255Z,21.23
2019-01-25T01:26:34.938Z,20.50
2019-01-25T01:29:04.549Z,20.43
2019-01-25T01:31:34.257Z,20.25
2019-01-25T01:34:03.969Z,20.60
2019-01-25T01:36:33.592Z,19.17
2019-01-25T01:39:04.325Z,19.35
2019-01-25T01:41:34.119Z,20.50
2019-01-25T01:44:03.859Z,18.77
2019-01-25T01:46:33.553Z,19.25
2019-01-25T01:49:03.287Z,18.60
2019-01-25T01:51:32.962Z,18.50
2019-01-25T01:54:02.610Z,18.02
2019-01-25T01:56:32.287Z,17.35
2019-01-25T01:59:01.987Z,17.70
2019-01-25T02:01:31.811Z,17.20
2019-01-25T02:04:01.381Z,18.00
2019-01-25T02:06:30.917Z,17.75
2019-01-25T02:09:00.634Z,17.20
2019-01-25T02:11:30.282Z,17.50
2019-01-25T02:13:59.958Z,17.60
2019-01-25T02:16:29.655Z,17.17
2019-01-25T02:18:59.422Z,16.32
2019-01-25T02:21:29.004Z,16.10
2019-01-25T02:23:58.705Z,16.40
2019-01-25T02:26:28.416Z,15.63
2019-01-25T02:28:58.043Z,16.00
2019-01-25T02:31:27.728Z,16.73
2019-01-25T02:33:57.438Z,15.55
2019-01-25T02:36:27.142Z,15.38
2019-01-25T02:38:56.864Z,15.78
2019-01-25T02:41:26.677Z,14.83
2019-01-25T02:43:56.298Z,15.10
2019-01-25T02:46:25.998Z,14.63
2019-01-25T02:48:56.039Z,14.68
2019-01-25T02:51:25.756Z,13.80
2019-01-25T02:53:55.438Z,13.95
2019-01-25T02:56:25.150Z,14.70
2019-01-25T02:58:54.776Z,14.20
2019-01-25T03:01:24.497Z,14.60
2019-01-25T03:03:54.168Z,14.05
2019-01-25T03:06:23.889Z,14.33
2019-01-25T03:08:53.593Z,13.70
2019-01-25T03:11:23.337Z,12.43
2019-01-25T03:13:53.015Z,13.45
2019-01-25T03:16:22.659Z,13.10
2019-01-25T03:18:52.468Z,12.37
2019-01-25T03:21:22.216Z,13.13
2019-01-25T03:23:51.862Z,13.20
2019-01-25T03:26:21.595Z,12.80
2019-01-25T03:28:51.422Z,12.85
2019-01-25T03:31:21.004Z,12.40
2019-01-25T03:33:50.759Z,12.73
2019-01-25T03:36:20.419Z,12.93
2019-01-25T03:38:50.121Z,12.10
2019-01-25T03:41:19.838Z,12.25
2019-01-25T03:43:49.458Z,12.10
2019-01-25T03:46:19.162Z,11.48
2019-01-25T03:48:48.796Z,12.07
2019-01-25T03:51:18.473Z,12.15
2019-01-25T03:53:48.217Z,11.55
2019-01-25T03:56:17.920Z,12.37
2019-01-25T03:58:47.628Z,12.00
2019-01-25T04:01:17.324Z,12.05
2019-01-25T04:03:47.028Z,11.53
2019-01-25T04:06:16.818Z,11.20
2019-01-25T04:08:46.600Z,11.43
2019-01-25T04:11:16.261Z,11.88
2019-01-25T04:13:45.970Z,10.72
2019-01-25T04:16:15.641Z,11.15
2019-01-25T04:18:45.297Z,11.50
2019-01-25T04:21:14.950Z,11.50
2019-01-25T04:23:44.620Z,11.55
2019-01-25T04:26:14.255Z,10.90
2019-01-25T04:28:43.932Z,10.63
2019-01-25T04:31:13.648Z,10.70
2019-01-25T04:33:43.359Z,10.58
2019-01-25T04:36:13.178Z,10.55
2019-01-25T04:38:42.913Z,10.55
2019-01-25T04:41:12.596Z,10.70
2019-01-25T04:43:42.231Z,10.60
2019-01-25T04:46:11.908Z,9.93
2019-01-25T04:48:41.526Z,10.55
2019-01-25T04:51:11.237Z,10.45
2019-01-25T04:53:40.852Z,9.70
2019-01-25T04:56:10.545Z,9.73
2019-01-25T04:58:40.266Z,10.10
2019-01-25T05:01:12.699Z,10.58
2019-01-25T05:03:42.539Z,9.35
2019-01-25T05:06:13.697Z,10.00
2019-01-25T05:08:43.405Z,9.48
2019-01-25T05:11:19.978Z,9.30
2019-01-25T05:13:48.899Z,9.90
2019-01-25T05:16:19.184Z,9.85
2019-01-25T05:18:49.052Z,9.45
2019-01-25T05:21:36.746Z,10.28
2019-01-25T05:24:12.062Z,8.98
2019-01-25T05:26:41.830Z,9.45
2019-01-25T05:29:11.682Z,9.43
2019-01-25T05:31:41.488Z,10.45
2019-01-25T05:34:11.559Z,9.78
2019-01-25T05:36:41.171Z,9.98
2019-01-25T05:39:11.061Z,9.55
2019-01-25T05:41:40.678Z,10.63
2019-01-25T05:44:10.456Z,11.70
2019-01-25T05:46:40.131Z,20.10
2019-01-25T05:49:09.822Z,29.27
2019-01-25T05:51:39.615Z,27.48
2019-01-25T05:54:09.425Z,25.50
2019-01-25T05:56:43.755Z,22.82
2019-01-25T05:59:13.463Z,20.23
2019-01-25T06:01:46.459Z,19.48
2019-01-25T06:04:16.667Z,19.55
2019-01-25T06:06:46.388Z,17.92
2019-01-25T06:09:21.229Z,16.57
2019-01-25T06:11:50.921Z,16.37
2019-01-25T06:14:20.637Z,16.55
2019-01-25T06:16:50.353Z,16.20
2019-01-25T06:19:20.092Z,14.95
2019-01-25T06:21:50.783Z,14.73
2019-01-25T06:24:20.499Z,15.18
2019-01-25T06:26:50.266Z,14.30
2019-01-25T06:29:19.942Z,14.93
2019-01-25T06:31:49.625Z,14.13
2019-01-25T06:34:19.374Z,14.00
2019-01-25T06:36:49.059Z,13.98
2019-01-25T06:39:18.793Z,13.60
2019-01-25T06:41:48.469Z,13.70
2019-01-25T06:44:18.208Z,13.38
2019-01-25T06:46:47.935Z,12.90
2019-01-25T06:49:17.608Z,13.05
2019-01-25T06:51:47.476Z,11.85
2019-01-25T06:54:17.184Z,13.10
2019-01-25T06:56:46.952Z,12.33
2019-01-25T06:59:19.539Z,12.28
2019-01-25T07:02:10.468Z,12.13
2019-01-25T07:04:40.156Z,11.53
2019-01-25T07:07:19.168Z,11.60
2019-01-25T07:09:48.999Z,12.10
2019-01-25T07:12:18.616Z,10.72
2019-01-25T07:14:48.418Z,11.25
2019-01-25T07:17:19.676Z,11.15
2019-01-25T07:19:49.295Z,11.08
2019-01-25T07:22:19.023Z,11.50
2019-01-25T07:24:48.618Z,11.00
2019-01-25T07:27:18.449Z,10.55
2019-01-25T07:29:48.013Z,11.08
2019-01-25T07:32:17.734Z,9.75
2019-01-25T07:34:47.457Z,9.53
2019-01-25T07:37:17.145Z,9.78
2019-01-25T07:39:47.009Z,9.20
2019-01-25T07:42:16.758Z,10.03
2019-01-25T07:44:46.585Z,10.25
2019-01-25T07:47:16.294Z,9.30
2019-01-25T07:49:45.997Z,9.05
2019-01-25T07:52:15.731Z,9.38
2019-01-25T07:54:45.552Z,9.88
2019-01-25T07:57:15.345Z,9.75
2019-01-25T07:59:45.050Z,9.10
2019-01-25T08:02:14.763Z,9.65
2019-01-25T08:04:44.471Z,8.78
2019-01-25T08:07:14.205Z,9.10
2019-01-25T08:09:43.886Z,8.68
2019-01-25T08:12:13.610Z,8.18
2019-01-25T08:14:43.321Z,8.53
2019-01-25T08:17:13.017Z,8.23
2019-01-25T08:19:42.728Z,8.13
2019-01-25T08:22:12.362Z,8.30
2019-01-25T08:24:42.060Z,8.65
2019-01-25T08:27:11.761Z,7.80
2019-01-25T08:29:41.509Z,8.33
2019-01-25T08:32:11.190Z,7.90
2019-01-25T08:34:40.819Z,7.85
2019-01-25T08:37:10.619Z,7.17
2019-01-25T08:39:40.324Z,7.15
2019-01-25T08:42:15.410Z,7.72
2019-01-25T08:44:41.417Z,7.67
2019-01-25T08:47:11.091Z,7.50
2019-01-25T08:49:40.768Z,6.03
2019-01-25T08:52:10.805Z,7.22
2019-01-25T08:54:40.462Z,6.17
2019-01-25T08:57:10.181Z,6.65
2019-01-25T08:59:39.786Z,6.17
2019-01-25T09:02:09.455Z,6.03
2019-01-25T09:04:39.180Z,6.00
2019-01-25T09:07:08.899Z,6.20
2019-01-25T09:09:38.706Z,6.05
2019-01-25T09:12:08.308Z,5.62
2019-01-25T09:14:38.030Z,6.45
2019-01-25T09:17:07.650Z,5.80
2019-01-25T09:19:37.339Z,5.62
2019-01-25T09:22:06.960Z,5.90
2019-01-25T09:24:38.140Z,6.03
2019-01-25T09:27:08.353Z,5.83
2019-01-25T09:29:38.424Z,5.95
2019-01-25T09:32:11.394Z,7.00
2019-01-25T09:34:41.621Z,8.03
2019-01-25T09:37:11.595Z,7.80
2019-01-25T09:39:43.521Z,8.83
2019-01-25T09:42:15.984Z,10.23
2019-01-25T09:44:47.504Z,10.88
2019-01-25T09:47:18.878Z,11.28
2019-01-25T09:49:49.371Z,12.13
2019-01-25T09:52:21.414Z,13.58
2019-01-25T09:54:54.451Z,13.08
2019-01-25T09:57:25.298Z,13.85
2019-01-25T09:59:57.289Z,14.70
2019-01-25T10:02:30.918Z,16.12
2019-01-25T10:05:01.918Z,16.30
2019-01-25T10:07:33.595Z,16.10
2019-01-25T10:10:05.754Z,16.52
2019-01-25T10:12:43.217Z,17.00
2019-01-25T10:15:12.890Z,17.02
2019-01-25T10:17:51.969Z,18.82
2019-01-25T10:20:22.875Z,18.52
2019-01-25T10:22:56.390Z,18.73
2019-01-25T10:25:28.604Z,18.85
2019-01-25T10:27:59.908Z,19.87
2019-01-25T10:30:32.757Z,18.92
2019-01-25T10:33:02.626Z,19.92
2019-01-25T10:35:34.015Z,19.95
2019-01-25T10:38:04.820Z,19.77
2019-01-25T10:40:34.743Z,21.17
2019-01-25T10:43:04.569Z,22.90
2019-01-25T10:45:35.976Z,22.13
2019-01-25T10:48:06.087Z,22.98
2019-01-25T10:50:35.856Z,24.85
2019-01-25T10:53:06.194Z,25.50
2019-01-25T10:55:36.092Z,25.90
2019-01-25T10:58:06.481Z,27.65
2019-01-25T11:00:36.519Z,26.75
2019-01-25T11:03:09.396Z,28.73
2019-01-25T11:05:40.899Z,29.87
2019-01-25T11:08:10.946Z,29.92
2019-01-25T11:10:41.111Z,28.92
2019-01-25T11:13:11.467Z,31.00
2019-01-25T11:15:41.692Z,30.97
2019-01-25T11:18:11.574Z,29.95
2019-01-25T11:20:41.386Z,29.92
2019-01-25T11:23:11.331Z,29.42
2019-01-25T11:25:41.825Z,30.30
2019-01-25T11:28:11.803Z,29.37
2019-01-25T11:30:43.266Z,28.75
2019-01-25T11:33:12.941Z,29.82
2019-01-25T11:35:42.629Z,29.07
2019-01-25T11:38:12.362Z,29.72
2019-01-25T11:40:43.756Z,29.05
2019-01-25T11:43:13.409Z,29.02
2019-01-25T11:45:43.672Z,30.05
2019-01-25T11:48:16.318Z,29.20
2019-01-25T11:50:45.908Z,28.73
2019-01-25T11:53:15.749Z,28.67
2019-01-25T11:55:45.472Z,27.20
2019-01-25T11:58:15.052Z,28.00
2019-01-25T12:00:45.862Z,27.70
2019-01-25T12:03:15.599Z,28.17
2019-01-25T12:05:45.240Z,26.93
2019-01-25T12:08:14.755Z,26.20
2019-01-25T12:10:44.401Z,25.90
2019-01-25T12:13:16.292Z,26.42
2019-01-25T12:15:45.563Z,25.45
2019-01-25T12:18:15.307Z,25.02
2019-01-25T12:20:44.985Z,25.90
2019-01-25T12:23:14.691Z,24.05
2019-01-25T12:25:44.409Z,24.57
2019-01-25T12:28:14.355Z,24.27
2019-01-25T12:30:44.046Z,23.12
2019-01-25T12:33:13.686Z,22.90
2019-01-25T12:35:44.826Z,23.15
2019-01-25T12:38:14.630Z,22.65
2019-01-25T12:40:44.345Z,22.55
2019-01-25T12:43:14.026Z,22.55
2019-01-25T12:45:43.753Z,22.20
2019-01-25T12:48:13.449Z,21.75
2019-01-25T12:51:05.285Z,20.95
2019-01-25T12:53:35.437Z,20.80
2019-01-25T12:56:05.120Z,21.48
2019-01-25T12:58:34.923Z,21.05
2019-01-25T13:01:06.116Z,20.12
2019-01-25T13:03:36.116Z,20.08
2019-01-25T13:06:06.124Z,19.87
2019-01-25T13:08:35.747Z,20.50
2019-01-25T13:11:05.524Z,20.23
2019-01-25T13:13:35.142Z,19.25
2019-01-25T13:16:04.851Z,19.48
2019-01-25T13:18:34.551Z,19.52
2019-01-25T13:21:04.218Z,18.98
2019-01-25T13:23:33.884Z,18.40
2019-01-25T13:26:03.638Z,19.40
2019-01-25T13:28:33.397Z,18.85
2019-01-25T13:31:03.179Z,18.25
2019-01-25T13:33:32.934Z,18.37
2019-01-25T13:36:02.557Z,17.87
2019-01-25T13:38:32.418Z,17.65
2019-01-25T13:41:02.103Z,16.67
2019-01-25T13:43:38.839Z,17.48
2019-01-25T13:46:03.252Z,17.98
2019-01-25T13:48:33.075Z,16.70
2019-01-25T13:51:02.785Z,16.50
2019-01-25T13:53:32.451Z,16.50
2019-01-25T13:56:02.208Z,15.48
2019-01-25T13:58:32.091Z,16.20
2019-01-25T14:01:01.843Z,16.17
2019-01-25T14:03:31.552Z,16.37
2019-01-25T14:06:01.209Z,16.73
2019-01-25T14:08:30.852Z,16.50
2019-01-25T14:11:00.533Z,17.90
2019-01-25T14:13:34.171Z,17.98
2019-01-25T14:16:01.599Z,18.17
2019-01-25T14:18:31.343Z,19.73
2019-01-25T14:21:01.011Z,20.97
2019-01-25T14:23:30.801Z,21.27
2019-01-25T14:26:00.546Z,21.85
2019-01-25T14:28:30.253Z,24.35
2019-01-25T14:30:59.973Z,24.90
2019-01-25T14:33:29.781Z,26.35
2019-01-25T14:35:59.417Z,27.13
2019-01-25T14:38:29.009Z,28.55
2019-01-25T14:40:58.620Z,28.98
2019-01-25T14:43:28.332Z,29.40
2019-01-25T14:45:58.029Z,31.42
2019-01-25T14:48:27.701Z,32.38
2019-01-25T14:50:57.447Z,33.05
2019-01-25T14:53:27.082Z,32.88
2019-01-25T14:55:56.800Z,32.70
2019-01-25T14:58:26.498Z,32.83
2019-01-25T15:00:57.680Z,34.60
2019-01-25T15:03:27.589Z,34.53
2019-01-25T15:05:57.286Z,35.50
2019-01-25T15:08:26.986Z,36.90
2019-01-25T15:10:56.711Z,37.03
2019-01-25T15:13:26.405Z,37.98
2019-01-25T15:15:56.092Z,38.92
2019-01-25T15:18:25.789Z,39.30
2019-01-25T15:20:55.566Z,39.10
2019-01-25T15:23:25.312Z,41.68
2019-01-25T15:25:55.025Z,41.48
2019-01-25T15:28:24.753Z,41.98
2019-01-25T15:30:54.481Z,44.27
2019-01-25T15:33:24.271Z,43.85
2019-01-25T15:35:53.992Z,45.58
2019-01-25T15:38:23.797Z,47.50
2019-01-25T15:40:53.537Z,49.50
2019-01-25T15:43:23.218Z,49.20
2019-01-25T15:45:52.957Z,49.50
2019-01-25T15:48:22.715Z,47.95
2019-01-25T15:50:52.375Z,50.00
2019-01-25T15:53:22.057Z,49.30
2019-01-25T15:55:51.682Z,47.75
2019-01-25T15:58:21.419Z,47.43
2019-01-25T16:00:51.082Z,47.75
2019-01-25T16:03:20.798Z,48.02
2019-01-25T16:05:50.514Z,48.68
2019-01-25T16:08:20.125Z,49.30
2019-01-25T16:10:49.934Z,51.68
2019-01-25T16:13:19.670Z,53.78
2019-01-25T16:15:49.361Z,53.80
2019-01-25T16:18:18.982Z,54.63
2019-01-25T16:20:48.818Z,54.50
2019-01-25T16:23:18.393Z,54.35
2019-01-25T16:25:48.092Z,53.52
2019-01-25T16:28:17.853Z,53.33
2019-01-25T16:30:47.614Z,52.60
2019-01-25T16:33:17.322Z,52.70
2019-01-25T16:35:46.981Z,54.23
2019-01-25T16:38:16.686Z,51.28
2019-01-25T16:40:46.264Z,55.20
2019-01-25T16:43:15.962Z,51.50
2019-01-25T16:45:46.017Z,53.45
2019-01-25T16:48:15.789Z,54.75
2019-01-25T16:50:45.589Z,51.90
2019-01-25T16:53:15.599Z,51.73
2019-01-25T16:55:45.162Z,51.50
2019-01-25T16:58:14.871Z,52.03
2019-01-25T17:00:46.463Z,51.75
2019-01-25T17:03:16.219Z,52.78
2019-01-25T17:05:45.865Z,48.73
2019-01-25T17:08:15.528Z,49.18
2019-01-25T17:10:45.166Z,48.95
2019-01-25T17:13:14.844Z,45.43
2019-01-25T17:15:44.599Z,46.98
2019-01-25T17:18:14.197Z,47.35
2019-01-25T17:20:43.769Z,46.60
2019-01-25T17:23:13.456Z,47.15
2019-01-25T17:25:43.199Z,47.75
2019-01-25T17:28:13.966Z,46.45
2019-01-25T17:30:43.668Z,47.08
2019-01-25T17:33:13.262Z,46.28
2019-01-25T17:35:42.768Z,46.10
2019-01-25T17:38:12.477Z,45.90
2019-01-25T17:40:46.884Z,47.85
2019-01-25T17:43:16.007Z,46.35
2019-01-25T17:45:45.710Z,48.48
2019-01-25T17:48:15.401Z,47.98
2019-01-25T17:50:45.129Z,46.75
2019-01-25T17:53:14.744Z,49.18
2019-01-25T17:55:44.653Z,47.80
2019-01-25T17:58:14.274Z,48.68
2019-01-25T18:00:55.812Z,53.08
2019-01-25T18:03:25.594Z,51.75
2019-01-25T18:05:55.213Z,48.33
2019-01-25T18:08:24.873Z,48.55
2019-01-25T18:10:54.687Z,47.60
2019-01-25T18:13:24.449Z,48.38
2019-01-25T18:15:54.215Z,47.50
2019-01-25T18:18:24.028Z,45.90
2019-01-25T18:20:53.742Z,46.13
2019-01-25T18:23:23.716Z,45.83
2019-01-25T18:26:08.721Z,47.13
2019-01-25T18:28:51.142Z,45.48
2019-01-25T18:31:22.541Z,45.98
2019-01-25T18:33:52.296Z,45.85
2019-01-25T18:36:21.999Z,49.33
2019-01-25T18:38:51.749Z,49.08
2019-01-25T18:41:21.424Z,49.08
2019-01-25T18:43:51.187Z,49.20
2019-01-25T18:46:20.873Z,48.60
2019-01-25T18:48:50.690Z,47.03
2019-01-25T18:51:20.377Z,46.92
2019-01-25T18:53:50.087Z,45.38
2019-01-25T18:56:21.603Z,46.73
2019-01-25T18:58:51.349Z,44.65
2019-01-25T19:01:20.985Z,44.67
2019-01-25T19:03:50.765Z,42.55
2019-01-25T19:06:20.539Z,43.75
2019-01-25T19:08:50.321Z,39.80
2019-01-25T19:11:20.111Z,42.62
2019-01-25T19:13:49.749Z,40.48
2019-01-25T19:16:19.430Z,39.98
2019-01-25T19:18:49.082Z,39.78
2019-01-25T19:21:18.660Z,38.23
2019-01-25T19:23:48.471Z,37.50
2019-01-25T19:26:19.559Z,38.05
2019-01-25T19:28:49.588Z,37.08
2019-01-25T19:31:19.234Z,35.40
2019-01-25T19:33:48.883Z,35.68
2019-01-25T19:36:18.557Z,34.65
2019-01-25T19:38:48.267Z,34.20
2019-01-25T19:41:18.113Z,33.90
2019-01-25T19:43:47.817Z,34.10
2019-01-25T19:46:17.620Z,32.83
2019-01-25T19:48:47.313Z,32.13
2019-01-25T19:51:17.008Z,31.85
2019-01-25T19:53:46.736Z,30.88
2019-01-25T19:56:16.418Z,29.95
2019-01-25T19:58:46.257Z,30.52
2019-01-25T20:01:16.030Z,30.08
2019-01-25T20:03:45.812Z,29.90
2019-01-25T20:06:15.508Z,28.35
2019-01-25T20:08:45.240Z,28.15
2019-01-25T20:11:15.020Z,29.07
2019-01-25T20:13:44.745Z,27.60
2019-01-25T20:16:17.065Z,27.87
2019-01-25T20:18:47.061Z,26.80
2019-01-25T20:21:16.714Z,27.87
2019-01-25T20:23:46.434Z,26.93
2019-01-25T20:26:16.069Z,25.85
2019-01-25T20:28:45.756Z,26.82
2019-01-25T20:31:15.418Z,27.27
2019-01-25T20:33:45.935Z,25.85
2019-01-25T20:36:15.949Z,24.90
2019-01-25T20:38:45.539Z,24.43
2019-01-25T20:41:15.441Z,24.43
2019-01-25T20:43:45.195Z,23.80
2019-01-25T20:46:14.858Z,23.67
2019-01-25T20:48:44.687Z,24.75
2019-01-25T20:51:14.297Z,25.00
2019-01-25T20:53:44.046Z,23.45
2019-01-25T20:56:13.621Z,22.90
2019-01-25T20:58:43.317Z,23.55
2019-01-25T21:01:13.049Z,23.40
2019-01-25T21:03:42.736Z,23.62
2019-01-25T21:06:12.355Z,22.45
2019-01-25T21:08:42.167Z,22.98
2019-01-25T21:11:11.893Z,22.93
2019-01-25T21:13:41.708Z,21.97
2019-01-25T21:16:11.470Z,21.48
2019-01-25T21:18:41.202Z,21.20
2019-01-25T21:21:10.905Z,21.23
2019-01-25T21:23:40.763Z,21.90
2019-01-25T21:26:10.538Z,20.92
2019-01-25T21:28:40.272Z,20.17
2019-01-25T21:31:10.081Z,19.67
2019-01-25T21:33:39.779Z,20.62
2019-01-25T21:36:09.490Z,19.17
2019-01-25T21:38:39.263Z,19.75
2019-01-25T21:41:09.006Z,18.52
2019-01-25T21:43:38.627Z,19.02
2019-01-25T21:46:08.228Z,18.45
2019-01-25T21:48:37.857Z,18.23
2019-01-25T21:51:07.798Z,18.40
2019-01-25T21:53:37.391Z,18.27
2019-01-25T21:56:07.072Z,18.80
2019-01-25T21:58:36.783Z,18.25
2019-01-25T22:01:06.630Z,17.52
2019-01-25T22:03:36.317Z,17.67
2019-01-25T22:06:06.266Z,17.17
2019-01-25T22:08:36.014Z,17.05
2019-01-25T22:11:05.948Z,16.07
2019-01-25T22:13:35.704Z,17.25
2019-01-25T22:16:06.987Z,16.57
2019-01-25T22:18:36.758Z,16.37
2019-01-25T22:21:06.442Z,15.88
2019-01-25T22:23:36.075Z,14.85
2019-01-25T22:26:05.855Z,16.48
2019-01-25T22:28:35.712Z,16.27
2019-01-25T22:31:05.383Z,15.53
2019-01-25T22:33:35.099Z,15.28
2019-01-25T22:36:04.799Z,15.40
2019-01-25T22:38:34.514Z,14.98
2019-01-25T22:41:04.137Z,15.23
2019-01-25T22:43:33.831Z,15.28
2019-01-25T22:46:03.677Z,13.98
2019-01-25T22:48:33.607Z,14.60
2019-01-25T22:51:03.173Z,13.90
2019-01-25T22:53:33.012Z,13.68
2019-01-25T22:56:02.609Z,14.03
2019-01-25T22:58:32.305Z,13.95
2019-01-25T23:01:22.905Z,14.13
2019-01-25T23:04:29.510Z,13.08
2019-01-25T23:07:19.975Z,13.55
2019-01-25T23:09:54.537Z,13.03
2019-01-25T23:12:24.126Z,13.25
2019-01-25T23:14:53.826Z,12.23
2019-01-25T23:17:23.454Z,11.93
2019-01-25T23:19:53.054Z,11.75
2019-01-25T23:22:22.857Z,12.65
2019-01-25T23:24:52.475Z,12.30
2019-01-25T23:27:22.200Z,11.48
2019-01-25T23:29:51.790Z,11.83
2019-01-25T23:32:21.483Z,12.10
2019-01-25T23:34:51.208Z,11.43
2019-01-25T23:37:20.903Z,11.43
2019-01-25T23:39:50.646Z,11.40
2019-01-25T23:42:20.258Z,10.95
2019-01-25T23:44:49.933Z,11.55
2019-01-25T23:47:19.571Z,12.05
2019-01-25T23:49:52.307Z,12.03
2019-01-25T23:52:22.070Z,10.32
2019-01-25T23:54:51.748Z,11.30
2019-01-25T23:57:21.484Z,9.95
2019-01-25T23:59:51.185Z,10.10
